Time;durP1;ratioP1;P1;durP2;ratioP2;P2;SDS_P1;SDS_P2;PMS_P1;PMS_P2;Temp;Humidity;BMP_temperature;BMP_pressure;BME280_temperature;BME280_humidity;BME280_pressure;Samples;Min_cycle;Max_cycle;Signal;HPM_P1;HPM_P2
2022/12/07 00:00:33;;;;;;;6.00;1.67;;;6.00;99.90;;;;;;5085183;28;20082;-38
2022/12/07 00:02:58;;;;;;;6.90;1.67;;;6.00;99.90;;;;;;5086119;28;20484;-41
2022/12/07 00:05:24;;;;;;;6.22;2.50;;;6.00;99.90;;;;;;5089153;28;20097;-44
2022/12/07 00:07:49;;;;;;;2.55;1.42;;;6.00;99.90;;;;;;5086536;28;20108;-41
2022/12/07 00:10:15;;;;;;;3.75;1.48;;;6.00;99.90;;;;;;5086888;28;20101;-42
2022/12/07 00:12:40;;;;;;;4.15;1.63;;;6.00;99.90;;;;;;5081112;28;20028;-42
2022/12/07 00:15:07;;;;;;;4.93;1.98;;;6.00;99.90;;;;;;5073501;28;20036;-41
2022/12/07 00:17:33;;;;;;;3.92;1.50;;;6.00;99.90;;;;;;5081365;28;20024;-45
2022/12/07 00:19:59;;;;;;;7.63;1.35;;;5.90;99.90;;;;;;5078387;28;20078;-42
2022/12/07 00:22:27;;;;;;;3.35;1.88;;;5.80;99.90;;;;;;5075450;28;20024;-42
2022/12/07 00:24:53;;;;;;;3.95;1.05;;;5.80;99.90;;;;;;5071367;28;20094;-42
2022/12/07 00:27:18;;;;;;;3.00;1.50;;;5.80;99.90;;;;;;5078807;28;20103;-59
2022/12/07 00:29:44;;;;;;;3.92;1.15;;;5.70;99.90;;;;;;5073191;28;20035;-58
2022/12/07 00:32:09;;;;;;;7.20;1.27;;;5.70;99.90;;;;;;5069183;28;20025;-45
2022/12/07 00:34:35;;;;;;;5.97;1.00;;;5.70;99.90;;;;;;5069673;28;20029;-41
2022/12/07 00:37:01;;;;;;;9.65;1.30;;;5.70;99.90;;;;;;5077131;28;20031;-43
2022/12/07 00:39:27;;;;;;;9.63;2.63;;;5.80;99.90;;;;;;5089877;28;20035;-42
2022/12/07 00:41:52;;;;;;;12.15;3.67;;;5.80;99.90;;;;;;5087331;28;20094;-39
2022/12/07 00:44:18;;;;;;;13.77;4.90;;;5.80;99.90;;;;;;5068896;28;20021;-40
2022/12/07 00:46:45;;;;;;;13.13;5.75;;;5.80;99.90;;;;;;5068483;28;20098;-41
2022/12/07 00:49:10;;;;;;;11.85;5.47;;;5.80;99.90;;;;;;5067766;28;20064;-41
2022/12/07 00:51:36;;;;;;;8.38;3.38;;;5.70;99.90;;;;;;5068925;28;20509;-44
2022/12/07 00:54:02;;;;;;;9.07;2.10;;;5.70;99.90;;;;;;5070095;28;20104;-34
2022/12/07 00:56:29;;;;;;;4.72;1.20;;;5.70;99.90;;;;;;5068840;28;20025;-32
2022/12/07 00:59:00;;;;;;;3.42;1.58;;;5.70;99.90;;;;;;5082555;28;20036;-33
2022/12/07 01:01:29;;;;;;;5.97;1.55;;;5.70;99.90;;;;;;5076129;28;20036;-32
2022/12/07 01:03:55;;;;;;;6.22;1.20;;;5.70;99.90;;;;;;5058269;28;20485;-32
2022/12/07 01:06:22;;;;;;;6.10;1.30;;;5.60;99.90;;;;;;5055316;28;20047;-33
2022/12/07 01:08:48;;;;;;;3.87;1.07;;;5.60;99.90;;;;;;5055479;28;20029;-31
2022/12/07 01:11:17;;;;;;;2.67;1.20;;;5.50;99.90;;;;;;5054649;28;20029;-34
2022/12/07 01:13:43;;;;;;;1.60;1.27;;;5.40;99.90;;;;;;5065471;28;20033;-38
2022/12/07 01:16:12;;;;;;;3.42;1.02;;;5.40;99.90;;;;;;5075560;28;20035;-31
2022/12/07 01:18:39;;;;;;;2.42;1.10;;;5.40;99.90;;;;;;5065226;28;20025;-35
2022/12/07 01:21:22;;;;;;;6.38;1.00;;;5.30;99.90;;;;;;5055213;28;20579;-32
2022/12/07 01:23:48;;;;;;;3.38;1.58;;;5.30;99.90;;;;;;5055223;28;20166;-37
2022/12/07 01:26:16;;;;;;;3.63;1.00;;;5.30;99.90;;;;;;5055188;28;20033;-35
2022/12/07 01:29:00;;;;;;;2.97;1.33;;;5.30;99.90;;;;;;5055239;28;20032;-36
2022/12/07 01:31:27;;;;;;;3.15;1.38;;;5.30;99.90;;;;;;5058232;28;20544;-37
2022/12/07 01:33:57;;;;;;;4.97;1.00;;;5.40;99.90;;;;;;5072974;28;20472;-36
2022/12/07 01:36:34;;;;;;;4.78;1.30;;;5.40;99.90;;;;;;5057553;28;20025;-33
2022/12/07 01:39:03;;;;;;;4.50;1.27;;;5.40;99.90;;;;;;5055018;28;20487;-32
2022/12/07 01:41:32;;;;;;;2.38;1.13;;;5.40;99.90;;;;;;5054769;28;20032;-34
2022/12/07 01:44:18;;;;;;;3.95;1.33;;;5.40;99.90;;;;;;5061094;28;20035;-33
2022/12/07 01:46:53;;;;;;;2.10;0.95;;;5.30;99.90;;;;;;5054829;28;20469;-33
2022/12/07 01:49:43;;;;;;;3.10;1.20;;;5.30;99.90;;;;;;5054747;28;20029;-32
2022/12/07 01:52:29;;;;;;;2.67;1.27;;;5.30;99.90;;;;;;5054461;28;20136;-35
2022/12/07 01:54:59;;;;;;;5.75;1.50;;;5.20;99.90;;;;;;5054228;28;20025;-31
2022/12/07 01:57:26;;;;;;;5.60;1.33;;;5.20;99.90;;;;;;5054555;28;20032;-38
2022/12/07 01:59:53;;;;;;;4.53;1.20;;;5.20;99.90;;;;;;5067645;28;20099;-36
2022/12/07 02:02:26;;;;;;;7.87;1.40;;;5.20;99.90;;;;;;5054767;28;20025;-31
2022/12/07 02:04:53;;;;;;;6.68;1.30;;;5.20;99.90;;;;;;5053833;28;20536;-31
2022/12/07 02:07:20;;;;;;;10.38;1.77;;;5.20;99.90;;;;;;5054410;28;20029;-37
2022/12/07 02:09:46;;;;;;;3.13;0.85;;;5.30;99.90;;;;;;5054315;28;20044;-32
2022/12/07 02:12:11;;;;;;;12.95;1.48;;;5.30;99.90;;;;;;5054176;28;20029;-32
2022/12/07 02:14:37;;;;;;;6.88;0.82;;;5.40;99.90;;;;;;5053284;28;20481;-34
2022/12/07 02:17:22;;;;;;;5.70;1.00;;;5.40;99.90;;;;;;5053981;28;20052;-36
2022/12/07 02:19:59;;;;;;;3.72;0.85;;;5.40;99.90;;;;;;5054659;28;20029;-34
2022/12/07 02:23:01;;;;;;;3.67;1.05;;;5.40;99.90;;;;;;5054073;28;20082;-34
2022/12/07 02:26:00;;;;;;;4.32;0.93;;;5.50;99.90;;;;;;5056094;28;20044;-33
2022/12/07 02:28:29;;;;;;;3.30;1.10;;;5.50;99.90;;;;;;5057601;28;20025;-34
2022/12/07 02:30:55;;;;;;;;;;;5.50;99.90;;;;;;5074243;28;20036;-36
2022/12/07 02:33:43;;;;;;;2.40;1.02;;;5.50;99.90;;;;;;5068770;28;19908;-32
2022/12/07 02:36:25;;;;;;;3.45;0.55;;;5.50;99.90;;;;;;5054106;28;20025;-32
2022/12/07 02:39:17;;;;;;;7.15;0.55;;;5.50;99.90;;;;;;5053695;28;20485;-32
2022/12/07 02:41:55;;;;;;;1.92;0.80;;;5.50;99.90;;;;;;5058348;28;20032;-31
2022/12/07 02:44:25;;;;;;;3.63;0.80;;;5.50;99.90;;;;;;5074350;28;20048;-35
2022/12/07 02:46:54;;;;;;;4.35;0.73;;;5.40;99.90;;;;;;5073342;28;20383;-33
2022/12/07 02:49:24;;;;;;;1.25;0.60;;;5.40;99.90;;;;;;5064718;28;20369;-34
2022/12/07 02:51:49;;;;;;;4.25;0.85;;;5.30;99.90;;;;;;5054342;28;20037;-40
2022/12/07 02:54:18;;;;;;;5.93;1.20;;;5.30;99.90;;;;;;5054048;28;20072;-31
2022/12/07 02:56:43;;;;;;;2.55;0.90;;;5.20;99.90;;;;;;5053733;28;20480;-34
2022/12/07 02:59:26;;;;;;;3.97;0.98;;;5.10;99.90;;;;;;5053272;28;20104;-32
2022/12/07 03:02:08;;;;;;;3.40;1.73;;;5.10;99.90;;;;;;5069734;28;20024;-43
2022/12/07 03:04:53;;;;;;;2.90;0.88;;;5.10;99.90;;;;;;5073419;28;20492;-40
2022/12/07 03:07:18;;;;;;;2.90;0.90;;;5.00;99.90;;;;;;5053268;28;20044;-34
2022/12/07 03:10:02;;;;;;;2.13;0.70;;;5.00;99.90;;;;;;5054088;28;20028;-42
2022/12/07 03:12:45;;;;;;;3.40;0.60;;;5.00;99.90;;;;;;5053059;28;20029;-44
2022/12/07 03:15:16;;;;;;;3.10;0.82;;;5.00;99.90;;;;;;5062131;28;20366;-48
2022/12/07 03:17:44;;;;;;;3.58;0.70;;;4.90;99.90;;;;;;5053109;28;20475;-46
2022/12/07 03:20:13;;;;;;;1.15;0.43;;;4.90;99.90;;;;;;5054464;28;20504;-36
2022/12/07 03:22:42;;;;;;;11.85;1.63;;;4.90;99.90;;;;;;5052974;28;20485;-34
2022/12/07 03:25:11;;;;;;;4.95;0.75;;;4.80;99.90;;;;;;5072594;28;20028;-35
2022/12/07 03:28:02;;;;;;;1.05;0.50;;;4.70;99.90;;;;;;5070522;28;20030;-36
2022/12/07 03:30:43;;;;;;;4.28;1.00;;;4.70;99.90;;;;;;5052596;28;20493;-63
2022/12/07 03:33:11;;;;;;;1.92;1.02;;;4.70;99.90;;;;;;5054966;28;20016;-34
2022/12/07 03:35:45;;;;;;;4.53;0.90;;;4.70;99.90;;;;;;5052567;28;20037;-41
2022/12/07 03:38:25;;;;;;;3.75;0.90;;;4.60;99.90;;;;;;5052708;28;20017;-38
2022/12/07 03:40:55;;;;;;;7.63;0.88;;;4.70;99.90;;;;;;5056609;28;20095;-35
2022/12/07 03:43:23;;;;;;;2.63;0.82;;;4.60;99.90;;;;;;5070186;28;20025;-34
2022/12/07 03:46:18;;;;;;;5.60;1.35;;;4.60;99.90;;;;;;5052051;28;20104;-32
2022/12/07 03:49:09;;;;;;;5.78;0.70;;;4.60;99.90;;;;;;5052869;28;20076;-32
2022/12/07 03:51:48;;;;;;;2.05;0.80;;;4.60;99.90;;;;;;5051855;28;20037;-38
2022/12/07 03:54:34;;;;;;;1.85;0.68;;;4.70;99.90;;;;;;5052698;28;20029;-37
2022/12/07 03:57:02;;;;;;;0.68;0.52;;;4.70;99.90;;;;;;5068975;28;20028;-32
2022/12/07 03:59:29;;;;;;;3.53;0.57;;;4.80;99.90;;;;;;5070792;28;20477;-36
2022/12/07 04:01:57;;;;;;;0.82;0.35;;;4.70;99.90;;;;;;5054978;28;20075;-37
2022/12/07 04:04:25;;;;;;;1.38;0.32;;;4.70;99.90;;;;;;5053155;28;20499;-35
2022/12/07 04:06:50;;;;;;;2.35;0.52;;;4.70;99.90;;;;;;5053229;28;20029;-33
2022/12/07 04:09:16;;;;;;;2.85;0.73;;;4.70;99.90;;;;;;5052552;28;20440;-36
2022/12/07 04:11:42;;;;;;;1.55;0.65;;;4.80;99.90;;;;;;5052975;28;20052;-33
2022/12/07 04:14:20;;;;;;;2.30;0.45;;;4.80;99.90;;;;;;5051176;28;20542;-37
2022/12/07 04:16:51;;;;;;;5.93;0.93;;;4.80;99.90;;;;;;5056027;28;20021;-36
2022/12/07 04:19:19;;;;;;;2.45;1.17;;;4.70;99.90;;;;;;5053291;28;20487;-35
2022/12/07 04:21:45;;;;;;;3.55;0.40;;;4.70;99.90;;;;;;5052394;28;20028;-35
2022/12/07 04:24:12;;;;;;;5.40;0.73;;;4.70;99.90;;;;;;5056001;28;20036;-35
2022/12/07 04:26:38;;;;;;;0.73;0.47;;;4.60;99.90;;;;;;5067815;28;20602;-37
2022/12/07 04:29:04;;;;;;;3.95;0.43;;;4.60;99.90;;;;;;5050881;28;20043;-48
2022/12/07 04:31:29;;;;;;;7.43;1.02;;;4.60;99.90;;;;;;5060617;28;20068;-35
2022/12/07 04:33:55;;;;;;;5.55;0.52;;;4.60;99.90;;;;;;5054402;28;20013;-36
2022/12/07 04:36:21;;;;;;;2.20;0.40;;;4.50;99.90;;;;;;5052712;28;20017;-36
2022/12/07 04:38:47;;;;;;;4.65;0.93;;;4.50;99.90;;;;;;5064243;28;20032;-35
2022/12/07 04:41:12;;;;;;;3.47;1.38;;;4.60;99.90;;;;;;5070281;28;20021;-37
2022/12/07 04:43:38;;;;;;;3.63;0.55;;;4.50;99.90;;;;;;5055169;28;20498;-38
2022/12/07 04:46:04;;;;;;;1.73;0.55;;;4.60;99.90;;;;;;5067789;28;20029;-36
2022/12/07 04:48:29;;;;;;;1.70;0.70;;;4.60;99.90;;;;;;5064860;28;20017;-36
2022/12/07 04:50:55;;;;;;;1.85;0.70;;;4.50;99.90;;;;;;5057848;28;20524;-34
2022/12/07 04:53:21;;;;;;;4.13;0.40;;;4.50;99.90;;;;;;5056170;28;20555;-31
2022/12/07 04:55:46;;;;;;;5.97;0.82;;;4.50;99.90;;;;;;5055766;28;20104;-35
2022/12/07 04:58:13;;;;;;;5.68;0.65;;;4.40;99.90;;;;;;5063093;28;20024;-33
2022/12/07 05:00:38;;;;;;;2.25;0.70;;;4.40;99.90;;;;;;5067400;28;20024;-33
2022/12/07 05:03:04;;;;;;;1.83;0.60;;;4.40;99.90;;;;;;5062278;28;20119;-33
2022/12/07 05:05:30;;;;;;;3.08;0.80;;;4.40;99.90;;;;;;5075550;28;20536;-33
2022/12/07 05:07:55;;;;;;;2.83;0.90;;;4.40;99.90;;;;;;5063692;28;20029;-32
2022/12/07 05:10:21;;;;;;;3.50;0.43;;;4.40;99.90;;;;;;5054589;28;20021;-35
2022/12/07 05:12:47;;;;;;;3.67;0.47;;;4.50;99.90;;;;;;5055336;28;20033;-35
2022/12/07 05:15:14;;;;;;;1.88;0.47;;;4.50;99.90;;;;;;5064710;28;20028;-35
2022/12/07 05:17:39;;;;;;;1.80;0.50;;;4.50;99.90;;;;;;5075244;28;20075;-35
2022/12/07 05:20:06;;;;;;;1.65;1.13;;;4.50;99.90;;;;;;5065835;28;20453;-32
2022/12/07 05:22:31;;;;;;;4.40;0.60;;;4.50;99.90;;;;;;5055516;28;20465;-44
2022/12/07 05:24:57;;;;;;;5.18;1.58;;;4.50;99.90;;;;;;5054694;28;20025;-33
2022/12/07 05:27:23;;;;;;;1.35;0.55;;;4.50;99.90;;;;;;5055638;28;20032;-39
2022/12/07 05:29:50;;;;;;;1.63;0.63;;;4.50;99.90;;;;;;5059078;28;20373;-39
2022/12/07 05:32:16;;;;;;;2.07;0.63;;;4.60;99.90;;;;;;5073193;28;20032;-35
2022/12/07 05:34:42;;;;;;;1.95;0.70;;;4.60;99.90;;;;;;5075390;28;20017;-37
2022/12/07 05:37:07;;;;;;;3.92;0.40;;;4.70;99.90;;;;;;5074990;28;20472;-40
2022/12/07 05:39:33;;;;;;;4.38;0.55;;;4.70;99.90;;;;;;5073186;28;20468;-36
2022/12/07 05:42:14;;;;;;;5.07;0.77;;;4.80;99.90;;;;;;5074926;28;20060;-40
2022/12/07 05:44:45;;;;;;;2.65;0.52;;;4.90;99.90;;;;;;5073190;28;20481;-32
2022/12/07 05:47:13;;;;;;;4.78;0.50;;;4.90;99.90;;;;;;5063820;28;20037;-38
2022/12/07 05:49:39;;;;;;;2.28;1.02;;;5.00;99.90;;;;;;5060155;28;20035;-37
2022/12/07 05:52:05;;;;;;;1.85;0.60;;;5.00;99.90;;;;;;5062234;28;20492;-34
2022/12/07 05:54:30;;;;;;;1.20;0.70;;;5.00;99.90;;;;;;5058751;28;20497;-32
2022/12/07 05:56:56;;;;;;;3.05;0.82;;;5.00;99.90;;;;;;5067972;28;20048;-32
2022/12/07 05:59:22;;;;;;;4.22;0.85;;;5.00;99.90;;;;;;5058300;28;20060;-33
2022/12/07 06:01:48;;;;;;;1.75;0.60;;;5.00;99.90;;;;;;5060662;28;20017;-34
2022/12/07 06:04:14;;;;;;;1.67;0.77;;;4.90;99.90;;;;;;5071829;28;20423;-36
2022/12/07 06:06:39;;;;;;;3.95;0.90;;;4.90;99.90;;;;;;5070563;28;20021;-33
2022/12/07 06:09:06;;;;;;;2.17;0.60;;;4.90;99.90;;;;;;5053109;28;20025;-35
2022/12/07 06:14:15;;;;;;;1.70;0.65;;;4.80;99.90;;;;;;5054504;28;20083;-34
2022/12/07 06:16:41;;;;;;;3.33;0.95;;;4.70;99.90;;;;;;5056647;28;20021;-41
2022/12/07 06:19:06;;;;;;;10.32;1.10;;;4.70;99.90;;;;;;5054131;28;20029;-35
2022/12/07 06:21:32;;;;;;;0.43;0.30;;;4.60;99.90;;;;;;5054141;28;20086;-36
2022/12/07 06:23:58;;;;;;;5.30;1.00;;;4.60;99.90;;;;;;5058072;28;20433;-33
2022/12/07 06:26:23;;;;;;;5.70;1.00;;;4.70;99.90;;;;;;5072189;28;20032;-35
2022/12/07 06:28:49;;;;;;;6.57;1.35;;;4.70;99.90;;;;;;5073266;28;20063;-45
2022/12/07 06:31:15;;;;;;;1.58;0.73;;;4.80;99.90;;;;;;5072026;28;20089;-39
2022/12/07 06:33:41;;;;;;;11.70;1.27;;;4.90;99.90;;;;;;5071735;28;20020;-34
2022/12/07 06:36:07;;;;;;;7.68;1.33;;;4.90;99.90;;;;;;5072112;28;20051;-34
2022/12/07 06:38:33;;;;;;;2.55;1.00;;;5.00;99.90;;;;;;5073823;28;20052;-35
2022/12/07 06:40:58;;;;;;;2.88;0.90;;;5.00;99.90;;;;;;5065597;28;20048;-36
2022/12/07 06:43:24;;;;;;;3.85;1.60;;;5.00;99.90;;;;;;5053730;28;20040;-33
2022/12/07 06:45:50;;;;;;;1.35;0.75;;;5.00;99.90;;;;;;5056667;28;20104;-37
2022/12/07 06:48:16;;;;;;;5.60;0.75;;;5.00;99.90;;;;;;5073831;28;20024;-33
2022/12/07 06:50:45;;;;;;;7.05;1.00;;;5.00;99.90;;;;;;5066537;28;20025;-35
2022/12/07 06:53:10;;;;;;;6.80;1.98;;;4.90;99.90;;;;;;5073166;28;20119;-34
2022/12/07 06:55:36;;;;;;;4.57;0.90;;;4.90;99.90;;;;;;5068499;28;20221;-37
2022/12/07 06:58:02;;;;;;;4.50;0.90;;;4.90;99.90;;;;;;5067302;28;20059;-36
2022/12/07 07:00:28;;;;;;;3.33;1.63;;;4.90;99.90;;;;;;5060988;28;20460;-48
2022/12/07 07:02:53;;;;;;;6.15;1.70;;;5.00;99.90;;;;;;5062810;28;20035;-35
2022/12/07 07:05:21;;;;;;;7.82;3.30;;;5.00;99.90;;;;;;5066801;28;20435;-35
2022/12/07 07:07:48;;;;;;;9.35;3.10;;;5.00;99.90;;;;;;5071206;28;20114;-35
2022/12/07 07:10:14;;;;;;;13.70;4.70;;;5.00;99.90;;;;;;5058783;28;20399;-34
2022/12/07 07:12:39;;;;;;;3.65;2.85;;;5.00;99.90;;;;;;5060723;28;20087;-35
2022/12/07 07:15:05;;;;;;;7.30;1.63;;;5.00;99.90;;;;;;5067796;28;20074;-36
2022/12/07 07:17:34;;;;;;;3.38;1.00;;;4.90;99.90;;;;;;5060553;28;20044;-38
2022/12/07 07:19:59;;;;;;;6.13;1.05;;;5.00;99.90;;;;;;5053000;28;20029;-40
2022/12/07 07:22:25;;;;;;;6.90;1.60;;;4.90;99.90;;;;;;5065570;28;20373;-36
2022/12/07 07:24:50;;;;;;;6.75;1.25;;;4.90;99.90;;;;;;5066704;28;20040;-40
2022/12/07 07:27:16;;;;;;;2.67;0.90;;;4.80;99.90;;;;;;5052951;28;20095;-38
2022/12/07 07:29:42;;;;;;;7.22;0.93;;;4.80;99.90;;;;;;5063445;28;20035;-32
2022/12/07 07:32:07;;;;;;;2.28;0.82;;;4.80;99.90;;;;;;5067816;28;20067;-37
2022/12/07 07:34:33;;;;;;;3.30;0.90;;;4.80;99.90;;;;;;5071158;28;20051;-37
2022/12/07 07:37:02;;;;;;;7.40;0.85;;;4.70;99.90;;;;;;5072796;28;20476;-35
2022/12/07 07:39:28;;;;;;;5.25;0.82;;;4.70;99.90;;;;;;5052711;28;20025;-33
2022/12/07 07:41:53;;;;;;;3.30;1.23;;;4.70;99.90;;;;;;5053288;28;20438;-31
2022/12/07 07:44:19;;;;;;;7.13;1.05;;;4.60;99.90;;;;;;5070865;28;20020;-36
2022/12/07 07:46:44;;;;;;;2.30;0.80;;;4.70;99.90;;;;;;5072407;28;20455;-34
2022/12/07 07:49:11;;;;;;;2.47;0.93;;;4.60;99.90;;;;;;5072495;28;20042;-33
2022/12/07 07:51:37;;;;;;;1.80;0.85;;;4.60;99.90;;;;;;5072227;28;20038;-38
2022/12/07 07:54:03;;;;;;;3.25;1.00;;;4.60;99.90;;;;;;5066987;28;20032;-32
2022/12/07 07:56:28;;;;;;;2.17;1.13;;;4.60;99.90;;;;;;5062150;28;20020;-31
2022/12/07 07:58:54;;;;;;;8.20;1.10;;;4.60;99.90;;;;;;5064336;28;20025;-40
2022/12/07 08:01:20;;;;;;;3.53;0.95;;;4.60;99.90;;;;;;5064246;28;20032;-35
2022/12/07 08:03:49;;;;;;;2.30;1.20;;;4.60;99.90;;;;;;5059197;28;20075;-39
2022/12/07 08:06:15;;;;;;;4.18;1.23;;;4.60;99.90;;;;;;5061513;28;20066;-33
2022/12/07 08:08:41;;;;;;;5.18;1.05;;;4.60;99.90;;;;;;5052518;28;20021;-38
2022/12/07 08:11:08;;;;;;;5.28;1.55;;;4.70;99.90;;;;;;5061641;28;20404;-41
2022/12/07 08:13:34;;;;;;;4.90;1.25;;;4.70;99.90;;;;;;5065498;28;20385;-36
2022/12/07 08:16:10;;;;;;;0.82;0.65;;;4.70;99.90;;;;;;5067141;28;20024;-34
2022/12/07 08:18:37;;;;;;;3.70;1.00;;;4.70;99.90;;;;;;5059663;28;20060;-40
2022/12/07 08:21:04;;;;;;;6.80;1.38;;;4.70;99.90;;;;;;5062225;28;20463;-34
2022/12/07 08:23:31;;;;;;;9.50;1.05;;;4.80;99.90;;;;;;5062824;28;20499;-37
2022/12/07 08:26:05;;;;;;;3.60;1.17;;;4.90;99.90;;;;;;5069377;28;20024;-33
2022/12/07 08:28:31;;;;;;;6.45;1.13;;;5.00;99.90;;;;;;5075513;28;20036;-35
2022/12/07 08:31:01;;;;;;;7.65;1.35;;;5.10;99.90;;;;;;5060626;28;20025;-38
2022/12/07 08:33:27;;;;;;;5.53;0.98;;;5.20;99.90;;;;;;5069626;28;20051;-51
2022/12/07 08:35:53;;;;;;;2.17;0.88;;;5.30;99.90;;;;;;5070383;28;20487;-42
2022/12/07 08:38:19;;;;;;;3.88;0.65;;;5.40;99.90;;;;;;5073377;28;20021;-38
2022/12/07 08:40:45;;;;;;;1.70;0.98;;;5.60;99.90;;;;;;5069623;28;20040;-36
2022/12/07 08:43:10;;;;;;;2.47;0.75;;;5.60;99.90;;;;;;5075135;28;20024;-36
2022/12/07 08:45:36;;;;;;;9.10;2.13;;;5.70;99.90;;;;;;5057387;28;20039;-35
2022/12/07 08:48:07;;;;;;;2.30;0.90;;;5.80;99.90;;;;;;5064214;28;20032;-36
2022/12/07 08:50:35;;;;;;;8.50;1.15;;;5.80;99.90;;;;;;5057865;28;20111;-35
2022/12/07 08:53:02;;;;;;;10.07;2.17;;;5.90;99.90;;;;;;5075552;28;20496;-37
2022/12/07 08:58:12;;;;;;;5.72;1.33;;;5.90;99.90;;;;;;5057389;28;20064;-34
2022/12/07 09:00:38;;;;;;;9.32;1.50;;;6.00;99.90;;;;;;5075576;28;20060;-34
2022/12/07 09:03:03;;;;;;;3.22;1.15;;;6.00;99.90;;;;;;5056563;28;20374;-34
2022/12/07 09:05:29;;;;;;;7.30;1.40;;;6.00;99.90;;;;;;5057593;28;20025;-35
2022/12/07 09:07:59;;;;;;;4.93;1.13;;;6.00;99.90;;;;;;5071557;28;20086;-34
2022/12/07 09:10:25;;;;;;;3.28;1.00;;;6.10;99.90;;;;;;5070931;28;20480;-33
2022/12/07 09:12:51;;;;;;;4.03;0.88;;;6.20;99.90;;;;;;5061447;28;20032;-40
2022/12/07 09:15:17;;;;;;;9.05;0.90;;;6.30;99.90;;;;;;5058507;28;20024;-33
2022/12/07 09:17:43;;;;;;;6.38;1.33;;;6.40;99.90;;;;;;5059842;28;20111;-38
2022/12/07 09:20:09;;;;;;;7.03;1.60;;;6.50;99.90;;;;;;5060038;28;20028;-36
2022/12/07 09:22:35;;;;;;;7.40;1.13;;;6.60;99.90;;;;;;5063466;28;20108;-38
2022/12/07 09:25:01;;;;;;;8.60;1.25;;;6.70;99.90;;;;;;5060743;28;20388;-37
2022/12/07 09:27:30;;;;;;;7.13;1.35;;;6.70;99.90;;;;;;5055250;28;20029;-39
2022/12/07 09:29:56;;;;;;;1.05;0.70;;;6.70;99.90;;;;;;5063406;28;20581;-33
2022/12/07 09:32:22;;;;;;;5.68;0.82;;;6.70;99.90;;;;;;5058870;28;20032;-32
2022/12/07 09:34:48;;;;;;;7.40;1.52;;;6.70;99.90;;;;;;5070116;28;20047;-35
2022/12/07 09:37:14;;;;;;;3.95;1.40;;;6.80;99.90;;;;;;5065171;28;20021;-36
2022/12/07 09:39:40;;;;;;;4.15;1.48;;;6.90;99.90;;;;;;5068275;28;20025;-33
2022/12/07 09:42:07;;;;;;;9.02;0.90;;;6.90;99.90;;;;;;5068631;28;20029;-33
2022/12/07 09:44:34;;;;;;;5.38;1.40;;;6.90;99.90;;;;;;5055290;28;20487;-54
2022/12/07 09:47:01;;;;;;;8.50;1.17;;;6.90;99.90;;;;;;5074761;28;20485;-34
2022/12/07 09:49:31;;;;;;;8.02;1.10;;;6.90;99.90;;;;;;5062613;28;20028;-34
2022/12/07 09:52:22;;;;;;;3.85;1.45;;;6.90;99.90;;;;;;5057416;28;20060;-45
2022/12/07 09:54:57;;;;;;;18.08;1.88;;;6.90;99.90;;;;;;5061656;28;20414;-45
2022/12/07 09:57:31;;;;;;;2.90;1.10;;;6.80;99.90;;;;;;5061085;28;20024;-39
2022/12/07 10:00:21;;;;;;;2.92;1.02;;;6.70;99.90;;;;;;5064944;28;20639;-42
2022/12/07 10:03:00;;;;;;;16.85;1.20;;;6.70;99.90;;;;;;5057230;28;20028;-41
2022/12/07 10:05:38;;;;;;;5.68;1.00;;;6.90;99.90;;;;;;5058499;28;20063;-42
2022/12/07 10:08:04;;;;;;;11.70;2.08;;;7.00;99.90;;;;;;5073452;28;20499;-45
2022/12/07 10:10:32;;;;;;;6.30;1.27;;;7.20;99.90;;;;;;5063908;28;20036;-42
2022/12/07 10:13:23;;;;;;;2.83;0.90;;;7.40;99.90;;;;;;5061694;28;20381;-42
2022/12/07 10:15:48;;;;;;;6.40;1.42;;;7.40;99.90;;;;;;5051480;28;20449;-41
2022/12/07 10:18:32;;;;;;;3.40;0.40;;;7.40;99.90;;;;;;5054171;28;20100;-42
2022/12/07 10:21:07;;;;;;;4.88;0.60;;;7.30;99.90;;;;;;5052557;28;20469;-32
2022/12/07 10:23:34;;;;;;;5.35;1.55;;;7.20;99.90;;;;;;5055503;28;20047;-35
2022/12/07 10:26:09;;;;;;;1.90;0.68;;;7.10;99.90;;;;;;5063082;28;20031;-33
2022/12/07 10:28:36;;;;;;;6.07;1.38;;;7.10;99.90;;;;;;5071390;28;20036;-35
2022/12/07 10:31:15;;;;;;;6.15;0.93;;;7.20;99.90;;;;;;5072755;28;20119;-32
2022/12/07 10:34:00;;;;;;;5.35;1.30;;;7.30;99.90;;;;;;5051806;28;20029;-34
2022/12/07 10:36:35;;;;;;;3.40;0.95;;;7.50;99.90;;;;;;5055122;28;20488;-39
2022/12/07 10:39:15;;;;;;;10.10;1.48;;;7.60;99.90;;;;;;5054273;28;20123;-38
2022/12/07 10:42:05;;;;;;;8.40;0.98;;;7.70;99.90;;;;;;5053417;28;20435;-41
2022/12/07 10:44:34;;;;;;;6.93;0.93;;;7.80;99.90;;;;;;5066389;28;20494;-35
2022/12/07 10:47:05;;;;;;;4.60;1.20;;;7.70;99.90;;;;;;5072635;28;20039;-41
2022/12/07 10:49:37;;;;;;;3.45;0.82;;;7.60;99.90;;;;;;5056781;28;20374;-34
2022/12/07 10:52:06;;;;;;;5.43;1.17;;;7.60;99.90;;;;;;5059895;28;20044;-37
2022/12/07 10:54:32;;;;;;;1.52;0.57;;;7.50;99.90;;;;;;5064222;28;20032;-36
2022/12/07 10:57:00;;;;;;;6.78;0.98;;;7.50;99.90;;;;;;5053819;28;20037;-36
2022/12/07 10:59:48;;;;;;;10.88;2.38;;;7.50;99.90;;;;;;5053634;28;20481;-34
2022/12/07 11:02:43;;;;;;;0.75;0.57;;;7.40;99.90;;;;;;5052165;28;20045;-37
2022/12/07 11:05:37;;;;;;;3.65;1.00;;;7.30;99.90;;;;;;5057753;28;20119;-43
2022/12/07 11:08:30;;;;;;;2.08;0.77;;;7.40;99.90;;;;;;5060569;28;20078;-36
2022/12/07 11:11:09;;;;;;;3.53;0.95;;;7.30;99.90;;;;;;5073227;28;20052;-38
2022/12/07 11:13:53;;;;;;;7.07;1.17;;;7.30;99.90;;;;;;5064092;28;20056;-44
2022/12/07 11:16:40;;;;;;;4.10;0.80;;;7.40;99.90;;;;;;5066593;28;20098;-37
2022/12/07 11:19:14;;;;;;;2.88;0.65;;;7.50;99.90;;;;;;5070001;28;20397;-35
2022/12/07 11:22:13;;;;;;;1.10;0.73;;;7.50;99.90;;;;;;5072071;28;20036;-38
2022/12/07 11:24:57;;;;;;;3.03;0.63;;;7.60;99.90;;;;;;5054426;28;20033;-31
2022/12/07 11:27:35;;;;;;;2.08;0.55;;;7.70;99.90;;;;;;5062065;28;20029;-40
2022/12/07 11:30:10;;;;;;;6.15;1.00;;;7.70;99.90;;;;;;5069861;28;20033;-40
2022/12/07 11:32:45;;;;;;;2.65;0.73;;;7.80;99.90;;;;;;5053396;28;20302;-34
2022/12/07 11:35:45;;;;;;;4.10;0.30;;;7.80;99.90;;;;;;5065471;28;20032;-33
2022/12/07 11:38:17;;;;;;;1.52;0.88;;;7.70;99.90;;;;;;5052520;28;20029;-37
2022/12/07 11:40:49;;;;;;;3.60;0.95;;;7.70;99.90;;;;;;5065848;28;20025;-38
2022/12/07 11:43:31;;;;;;;1.80;0.88;;;7.70;99.90;;;;;;5069417;28;20035;-36
2022/12/07 11:46:08;;;;;;;6.07;0.57;;;7.60;99.90;;;;;;5070915;28;20028;-37
2022/12/07 11:48:40;;;;;;;0.43;0.35;;;7.50;99.90;;;;;;5063362;28;20551;-37
2022/12/07 11:51:10;;;;;;;6.53;0.70;;;7.40;99.90;;;;;;5052505;28;20512;-36
2022/12/07 11:54:17;;;;;;;1.63;0.50;;;7.30;99.90;;;;;;5052382;28;20053;-35
2022/12/07 11:56:45;;;;;;;6.63;1.85;;;7.20;99.90;;;;;;5053496;28;20111;-37
2022/12/07 11:59:21;;;;;;;3.50;0.63;;;7.20;99.90;;;;;;5052336;28;20041;-31
2022/12/07 12:02:14;;;;;;;3.33;0.50;;;7.20;99.90;;;;;;5052614;28;20116;-31
2022/12/07 12:05:02;;;;;;;4.05;0.82;;;7.30;99.90;;;;;;5052531;28;20515;-34
2022/12/07 12:07:28;;;;;;;6.53;1.45;;;7.20;99.90;;;;;;5052825;28;20423;-35
2022/12/07 12:10:00;;;;;;;7.20;0.88;;;7.30;99.90;;;;;;5052505;28;20025;-34
2022/12/07 12:13:11;;;;;;;5.60;1.17;;;7.40;99.90;;;;;;5062463;28;20034;-36
2022/12/07 12:15:52;;;;;;;4.32;1.25;;;7.60;99.90;;;;;;5067164;28;20393;-36
2022/12/07 12:18:37;;;;;;;1.33;0.60;;;7.60;99.90;;;;;;5068501;28;20035;-35
2022/12/07 12:21:12;;;;;;;1.88;0.47;;;7.60;99.90;;;;;;5053319;28;20489;-42
2022/12/07 12:23:44;;;;;;;8.88;1.15;;;7.70;99.90;;;;;;5052411;28;20033;-43
2022/12/07 12:26:24;;;;;;;2.63;1.30;;;7.80;99.90;;;;;;5055292;28;20032;-42
2022/12/07 12:29:00;;;;;;;4.20;0.75;;;7.80;99.90;;;;;;5072416;28;20400;-42
2022/12/07 12:31:32;;;;;;;2.67;0.98;;;7.70;99.90;;;;;;5072323;28;20123;-45
2022/12/07 12:34:00;;;;;;;2.92;0.50;;;7.70;99.90;;;;;;5072387;28;20025;-43
2022/12/07 12:36:34;;;;;;;3.65;1.65;;;7.60;99.90;;;;;;5062107;28;20025;-42
2022/12/07 12:39:18;;;;;;;2.15;1.00;;;7.60;99.90;;;;;;5052876;28;20587;-42
2022/12/07 12:44:15;;;;;;;4.07;1.20;;;7.40;99.90;;;;;;5059170;28;20037;-42
2022/12/07 12:46:57;;;;;;;3.65;0.55;;;7.40;99.90;;;;;;5072406;28;20515;-42
2022/12/07 12:49:22;;;;;;;2.53;0.68;;;7.30;99.90;;;;;;5072559;28;20557;-45
2022/12/07 12:51:55;;;;;;;3.05;0.82;;;7.30;99.90;;;;;;5069636;28;20060;-45
2022/12/07 12:54:25;;;;;;;5.82;0.75;;;7.30;99.90;;;;;;5072237;28;20040;-44
2022/12/07 12:57:03;;;;;;;5.65;0.65;;;7.30;99.90;;;;;;5070506;28;20021;-46
2022/12/07 12:59:31;;;;;;;3.40;0.50;;;7.30;99.90;;;;;;5061465;28;20036;-40
2022/12/07 13:02:19;;;;;;;3.00;0.90;;;7.20;99.90;;;;;;5055813;28;20492;-42
2022/12/07 13:05:07;;;;;;;4.15;0.82;;;7.20;99.90;;;;;;5055746;28;20071;-43
2022/12/07 13:07:48;;;;;;;4.40;0.70;;;7.20;99.90;;;;;;5055642;28;20041;-46
2022/12/07 13:10:29;;;;;;;5.18;1.40;;;7.20;99.90;;;;;;5058892;28;20067;-41
2022/12/07 13:13:02;;;;;;;1.63;1.10;;;7.40;99.90;;;;;;5065099;28;20037;-43
2022/12/07 13:15:46;;;;;;;2.17;0.70;;;7.50;99.90;;;;;;5075420;28;20024;-41
2022/12/07 13:18:23;;;;;;;2.65;0.63;;;7.60;99.90;;;;;;5072495;28;20489;-42
2022/12/07 13:20:57;;;;;;;3.80;0.63;;;7.70;99.90;;;;;;5054132;28;20421;-44
2022/12/07 13:23:29;;;;;;;3.75;0.90;;;7.90;99.90;;;;;;5055652;28;20036;-45
2022/12/07 13:26:12;;;;;;;2.58;0.82;;;8.00;99.90;;;;;;5060018;28;20541;-42